Time;durP1;ratioP1;P1;durP2;ratioP2;P2;SDS_P1;SDS_P2;PMS_P1;PMS_P2;Temp;Humidity;BMP_temperature;BMP_pressure;BME280_temperature;BME280_humidity;BME280_pressure;Samples;Min_cycle;Max_cycle;Signal;HPM_P1;HPM_P2
2024/04/07 00:01:12;;;;;;;6.13;2.60;;;;;;;13.71;78.20;95685.72;5062107;28;20214;-86
2024/04/07 00:03:39;;;;;;;3.03;2.00;;;;;;;13.68;77.37;95688.84;5062799;28;20268;-86
2024/04/07 00:06:05;;;;;;;9.17;2.00;;;;;;;13.58;78.36;95689.44;5063736;28;20585;-86
2024/04/07 00:08:32;;;;;;;5.40;1.80;;;;;;;13.64;78.03;95685.06;5063895;28;20218;-86
2024/04/07 00:11:00;;;;;;;6.00;1.97;;;;;;;13.56;78.51;95677.50;5064522;28;20532;-86
2024/04/07 00:13:29;;;;;;;4.57;2.03;;;;;;;13.58;77.51;95680.72;5062390;28;20673;-87
2024/04/07 00:15:55;;;;;;;5.40;1.90;;;;;;;13.58;78.14;95675.44;5064323;28;20192;-86
2024/04/07 00:18:22;;;;;;;4.10;1.93;;;;;;;13.50;78.39;95666.00;5064970;28;20224;-87
2024/04/07 00:20:47;;;;;;;3.40;2.07;;;;;;;13.61;77.87;95661.72;5063779;28;20209;-86
2024/04/07 00:23:14;;;;;;;4.53;1.80;;;;;;;13.61;76.49;95656.41;5065886;28;20243;-86
2024/04/07 00:25:40;;;;;;;3.97;1.70;;;;;;;13.59;77.07;95661.94;5065285;28;20246;-86
2024/04/07 00:28:07;;;;;;;2.50;1.73;;;;;;;13.61;76.06;95662.50;5065192;28;20221;-86
2024/04/07 00:30:34;;;;;;;2.90;1.70;;;;;;;13.62;74.27;95656.19;5068234;28;20193;-84
2024/04/07 00:33:01;;;;;;;2.83;1.40;;;;;;;13.72;73.54;95668.81;5076513;28;20181;-84
2024/04/07 00:35:27;;;;;;;3.70;1.67;;;;;;;13.72;75.57;95664.31;5063157;28;20203;-85
2024/04/07 00:37:54;;;;;;;3.67;1.83;;;;;;;13.76;75.52;95656.72;5059075;28;20283;-86
2024/04/07 00:40:19;;;;;;;2.90;1.90;;;;;;;13.62;74.92;95655.38;5060879;28;20259;-86
2024/04/07 00:42:48;;;;;;;3.53;1.60;;;;;;;13.61;75.64;95664.34;5059580;28;20189;-86
2024/04/07 00:45:14;;;;;;;2.47;1.53;;;;;;;13.62;74.35;95656.19;5060189;28;20213;-85
2024/04/07 00:47:42;;;;;;;1.60;1.50;;;;;;;13.70;73.68;95652.34;5061272;28;20205;-86
2024/04/07 00:50:08;;;;;;;2.10;1.40;;;;;;;13.55;73.14;95644.94;5059658;28;20198;-85
2024/04/07 00:52:35;;;;;;;3.90;1.40;;;;;;;13.56;73.64;95654.47;5061913;28;20272;-86
2024/04/07 00:55:01;;;;;;;2.80;1.63;;;;;;;13.63;72.51;95664.91;5061628;28;20526;-85
2024/04/07 00:57:29;;;;;;;4.00;1.70;;;;;;;13.48;74.11;95662.00;5061786;28;20267;-86
2024/04/07 00:59:55;;;;;;;2.57;1.30;;;;;;;13.51;74.88;95653.59;5063685;28;20215;-86
2024/04/07 01:02:22;;;;;;;4.97;1.77;;;;;;;13.50;75.31;95662.56;5058207;28;20653;-85
2024/04/07 01:04:49;;;;;;;10.40;1.93;;;;;;;13.48;74.13;95660.16;5056823;28;20193;-85
2024/04/07 01:07:16;;;;;;;4.87;1.70;;;;;;;13.49;74.28;95661.75;5057457;28;20217;-86
2024/04/07 01:09:42;;;;;;;2.80;1.50;;;;;;;13.48;71.93;95664.63;5059037;28;20246;-86
2024/04/07 01:12:13;;;;;;;3.27;1.37;;;;;;;13.46;72.97;95675.47;5057567;28;20189;-86
2024/04/07 01:14:39;;;;;;;2.73;1.60;;;;;;;13.28;75.04;95685.41;5057750;28;20246;-85
2024/04/07 01:17:06;;;;;;;4.20;1.80;;;;;;;13.26;76.29;95685.59;5059475;28;20209;-85
2024/04/07 01:19:32;;;;;;;3.53;1.60;;;;;;;13.24;76.44;95663.88;5057389;28;20711;-86
2024/04/07 01:22:00;;;;;;;2.80;1.30;;;;;;;13.08;75.25;95683.09;5058746;28;20209;-85
2024/04/07 01:24:27;;;;;;;2.37;1.20;;;;;;;13.16;74.72;95674.84;5057245;28;20194;-86
2024/04/07 01:26:54;;;;;;;1.70;1.27;;;;;;;13.23;73.73;95674.69;5057837;28;20210;-85
2024/04/07 01:29:20;;;;;;;5.20;1.50;;;;;;;13.22;74.75;95678.38;5057691;28;20197;-86
2024/04/07 01:31:47;;;;;;;4.33;1.60;;;;;;;13.16;75.93;95682.78;5057446;28;20193;-86
2024/04/07 01:34:13;;;;;;;6.13;1.23;;;;;;;13.20;76.01;95683.09;5059128;28;20243;-85
2024/04/07 01:36:40;;;;;;;4.37;1.73;;;;;;;13.18;75.67;95682.53;5059666;28;20216;-86
2024/04/07 01:39:07;;;;;;;2.23;1.20;;;;;;;13.12;74.96;95678.97;5058158;28;20205;-86
2024/04/07 01:41:35;;;;;;;1.73;1.43;;;;;;;13.22;74.34;95676.53;5060395;28;20267;-85
2024/04/07 01:44:01;;;;;;;1.23;1.13;;;;;;;13.10;73.23;95673.09;5057735;28;20201;-86
2024/04/07 01:46:28;;;;;;;2.70;1.20;;;;;;;13.08;73.51;95668.06;5058168;28;20217;-86
2024/04/07 01:48:54;;;;;;;2.20;1.40;;;;;;;13.12;72.70;95665.72;5060159;28;20216;-86
2024/04/07 01:51:21;;;;;;;1.60;1.10;;;;;;;13.09;73.71;95664.34;5060449;28;20189;-86
2024/04/07 01:53:46;;;;;;;2.50;1.73;;;;;;;13.09;74.15;95667.00;5058912;28;20281;-86
2024/04/07 01:56:13;;;;;;;10.97;1.37;;;;;;;13.10;74.47;95665.97;5060228;28;20672;-86
2024/04/07 01:58:40;;;;;;;3.00;1.40;;;;;;;13.11;74.79;95669.44;5060230;28;20221;-86
2024/04/07 02:01:07;;;;;;;2.83;1.60;;;;;;;13.13;75.07;95665.53;5059215;28;20224;-86
2024/04/07 02:03:33;;;;;;;3.73;1.77;;;;;;;13.02;74.41;95658.34;5058145;28;20201;-86
2024/04/07 02:06:00;;;;;;;2.67;1.33;;;;;;;12.98;74.13;95662.50;5059336;28;20262;-86
2024/04/07 02:08:27;;;;;;;2.17;1.47;;;;;;;13.07;74.95;95662.97;5059188;28;20684;-86
2024/04/07 02:10:53;;;;;;;1.60;1.23;;;;;;;12.96;76.00;95663.78;5059270;28;20251;-86
2024/04/07 02:13:20;;;;;;;3.13;1.50;;;;;;;12.93;76.22;95661.59;5059769;28;20194;-85
2024/04/07 02:15:48;;;;;;;2.53;1.60;;;;;;;12.91;76.14;95661.81;5061144;28;20236;-85
2024/04/07 02:18:15;;;;;;;2.30;1.50;;;;;;;12.91;75.21;95645.97;5061332;28;20308;-86
2024/04/07 02:20:41;;;;;;;2.63;1.10;;;;;;;12.86;72.79;95656.41;5059936;28;20264;-86
2024/04/07 02:23:08;;;;;;;3.07;1.33;;;;;;;13.03;71.50;95649.41;5060216;28;20198;-86
2024/04/07 02:25:34;;;;;;;1.40;0.93;;;;;;;13.20;68.96;95640.78;5060223;28;20193;-86
2024/04/07 02:28:00;;;;;;;1.90;1.10;;;;;;;13.27;67.97;95650.19;5060797;28;20717;-86
2024/04/07 02:30:26;;;;;;;3.07;1.20;;;;;;;13.45;66.43;95641.28;5061162;28;20185;-86
2024/04/07 02:32:54;;;;;;;2.40;1.03;;;;;;;13.57;66.57;95648.16;5061229;28;20193;-86
2024/04/07 02:35:20;;;;;;;3.20;1.20;;;;;;;13.57;66.63;95645.50;5061996;28;20190;-86
2024/04/07 02:37:47;;;;;;;2.33;1.67;;;;;;;13.30;69.80;95649.75;5062415;28;20551;-84
2024/04/07 02:40:13;;;;;;;2.47;1.50;;;;;;;13.27;69.83;95663.41;5061619;28;20244;-87
2024/04/07 02:42:40;;;;;;;2.37;1.23;;;;;;;13.15;71.76;95671.38;5061547;28;20726;-86
2024/04/07 02:50:42;;;;;;;1.93;1.20;;;;;;;12.85;76.15;95677.81;5051350;28;20224;-86
2024/04/07 02:53:08;;;;;;;2.20;1.40;;;;;;;12.64;75.73;95687.13;5061457;28;20255;-86
2024/04/07 02:55:34;;;;;;;4.13;1.60;;;;;;;12.64;76.86;95681.00;5058850;28;20191;-86
2024/04/07 02:58:01;;;;;;;2.63;1.37;;;;;;;12.70;76.03;95683.53;5057523;28;20216;-86
2024/04/07 03:00:27;;;;;;;2.97;1.40;;;;;;;12.68;75.70;95680.31;5059022;28;20251;-86
2024/04/07 03:02:53;;;;;;;3.87;1.87;;;;;;;12.61;76.71;95687.56;5058056;28;20193;-86
2024/04/07 03:05:19;;;;;;;4.10;1.50;;;;;;;12.76;76.29;95689.75;5058284;28;20197;-86
2024/04/07 03:07:50;;;;;;;4.40;1.47;;;;;;;12.75;75.56;95686.31;5058967;28;20304;-86
2024/04/07 03:10:16;;;;;;;1.33;1.10;;;;;;;12.74;75.27;95689.97;5059254;28;20243;-86
2024/04/07 03:12:43;;;;;;;3.30;1.30;;;;;;;12.83;72.47;95685.97;5060964;28;20185;-86
2024/04/07 03:15:09;;;;;;;3.03;1.13;;;;;;;12.87;70.65;95692.41;5060810;28;20193;-86
2024/04/07 03:17:36;;;;;;;1.30;1.10;;;;;;;13.04;68.09;95688.03;5060179;28;20244;-86
2024/04/07 03:20:03;;;;;;;3.60;1.83;;;;;;;13.05;66.04;95697.59;5059966;28;20197;-86
2024/04/07 03:22:30;;;;;;;2.63;1.20;;;;;;;13.03;64.78;95690.91;5060725;28;20221;-86
2024/04/07 03:24:57;;;;;;;1.33;0.90;;;;;;;13.16;64.67;95690.69;5060036;28;20558;-85
2024/04/07 03:27:24;;;;;;;1.43;1.00;;;;;;;13.37;63.72;95697.22;5060998;28;20767;-87
2024/04/07 03:29:50;;;;;;;0.70;0.70;;;;;;;13.38;62.75;95694.34;5063468;28;20271;-86
2024/04/07 03:32:16;;;;;;;2.73;1.20;;;;;;;13.41;62.99;95698.34;5063222;28;20197;-87
2024/04/07 03:34:42;;;;;;;2.07;1.10;;;;;;;13.43;63.50;95704.22;5060938;28;20259;-86
2024/04/07 03:37:09;;;;;;;4.70;1.50;;;;;;;13.46;63.99;95699.28;5068047;28;20217;-85
2024/04/07 03:39:36;;;;;;;2.50;1.00;;;;;;;13.49;64.73;95703.31;5068468;28;20243;-86
2024/04/07 03:42:04;;;;;;;1.43;0.87;;;;;;;13.36;65.04;95709.63;5056746;28;20229;-86
2024/04/07 03:44:31;;;;;;;1.17;0.90;;;;;;;13.38;64.73;95710.22;5056103;28;20204;-85
2024/04/07 03:46:58;;;;;;;4.07;1.20;;;;;;;13.45;64.08;95718.81;5058052;28;20256;-85
2024/04/07 03:49:25;;;;;;;3.43;1.07;;;;;;;13.43;63.28;95723.53;5056876;28;20235;-85
2024/04/07 03:51:51;;;;;;;2.40;0.93;;;;;;;13.48;63.08;95721.00;5056483;28;20197;-86
2024/04/07 03:54:18;;;;;;;2.47;1.10;;;;;;;13.58;62.20;95715.13;5055532;28;20693;-86
2024/04/07 03:56:44;;;;;;;1.53;1.00;;;;;;;13.55;62.31;95726.97;5058936;28;20311;-85
2024/04/07 03:59:12;;;;;;;2.43;1.10;;;;;;;13.61;61.66;95722.56;5060371;28;20191;-86
2024/04/07 04:01:39;;;;;;;2.20;1.03;;;;;;;13.71;61.37;95720.94;5060441;28;20205;-86
2024/04/07 04:04:06;;;;;;;1.80;0.90;;;;;;;13.61;62.28;95733.97;5060342;28;20192;-86
2024/04/07 04:06:32;;;;;;;2.07;1.10;;;;;;;13.54;65.94;95741.25;5060610;28;20217;-85
2024/04/07 04:08:59;;;;;;;2.33;1.00;;;;;;;13.29;66.79;95756.56;5060905;28;20243;-86
2024/04/07 04:11:26;;;;;;;1.67;1.33;;;;;;;13.18;67.76;95752.09;5060856;28;20193;-85
2024/04/07 04:13:52;;;;;;;1.10;1.00;;;;;;;13.27;66.66;95755.19;5060144;28;20194;-86
2024/04/07 04:16:20;;;;;;;3.77;1.20;;;;;;;13.21;67.11;95761.41;5062048;28;20649;-86
2024/04/07 04:18:47;;;;;;;2.50;1.13;;;;;;;13.14;67.95;95757.03;5060647;28;20869;-86
2024/04/07 04:21:13;;;;;;;2.00;1.20;;;;;;;13.12;70.70;95784.75;5060887;28;20217;-85
2024/04/07 04:23:39;;;;;;;4.73;1.50;;;;;;;12.85;72.33;95778.25;5060298;28;20201;-85
2024/04/07 04:26:06;;;;;;;1.33;1.00;;;;;;;12.83;73.41;95786.41;5060591;28;20243;-85
2024/04/07 04:28:33;;;;;;;2.40;1.30;;;;;;;12.86;73.38;95788.59;5060779;28;20197;-86
2024/04/07 04:31:00;;;;;;;2.47;1.30;;;;;;;12.77;72.94;95792.59;5062994;28;20182;-86
2024/04/07 04:33:28;;;;;;;2.10;1.33;;;;;;;12.75;73.24;95778.00;5060734;28;20200;-86
2024/04/07 04:35:54;;;;;;;2.47;1.33;;;;;;;12.70;74.14;95786.59;5060961;28;20193;-85
2024/04/07 04:38:21;;;;;;;3.57;1.57;;;;;;;12.78;74.28;95796.88;5062015;28;20735;-86
2024/04/07 04:40:54;;;;;;;2.37;1.70;;;;;;;12.46;75.48;95788.38;5060485;28;20198;-86
2024/04/07 04:43:21;;;;;;;2.03;1.17;;;;;;;12.36;76.73;95793.41;5060359;28;20198;-86
2024/04/07 04:45:48;;;;;;;4.37;1.50;;;;;;;12.39;76.26;95794.81;5061804;28;20646;-86
2024/04/07 04:48:15;;;;;;;2.13;1.50;;;;;;;12.22;76.54;95804.38;5062269;28;20217;-86
2024/04/07 04:50:51;;;;;;;1.63;1.13;;;;;;;12.30;77.05;95809.34;5060310;28;20193;-86
2024/04/07 04:53:18;;;;;;;2.30;1.47;;;;;;;12.20;77.40;95817.00;5062160;28;20197;-86
2024/04/07 04:55:44;;;;;;;3.07;1.50;;;;;;;12.09;77.86;95830.97;5061668;28;20721;-86
2024/04/07 04:58:11;;;;;;;3.77;1.87;;;;;;;11.97;79.24;95820.31;5060482;28;20221;-86
2024/04/07 05:00:37;;;;;;;4.60;2.10;;;;;;;12.00;80.10;95821.72;5061038;28;20200;-86
2024/04/07 05:03:04;;;;;;;6.57;1.57;;;;;;;12.04;80.78;95822.91;5062645;28;20238;-86
2024/04/07 05:05:30;;;;;;;2.73;1.17;;;;;;;11.84;79.19;95838.97;5060612;28;20220;-86
2024/04/07 05:07:58;;;;;;;2.40;1.43;;;;;;;12.06;77.92;95831.41;5059741;28;20213;-86
2024/04/07 05:10:24;;;;;;;4.47;1.40;;;;;;;12.10;75.56;95830.72;5060899;28;20194;-86
2024/04/07 05:12:51;;;;;;;2.73;1.50;;;;;;;12.03;76.79;95831.84;5061357;28;20194;-86
2024/04/07 05:15:17;;;;;;;1.47;1.17;;;;;;;12.04;78.82;95833.47;5062357;28;20190;-86
2024/04/07 05:17:46;;;;;;;1.63;1.53;;;;;;;11.94;78.89;95846.34;5061373;28;20217;-86
2024/04/07 05:20:14;;;;;;;3.43;1.50;;;;;;;11.86;79.92;95851.91;5062363;28;20193;-86
2024/04/07 05:22:41;;;;;;;3.53;1.70;;;;;;;11.78;79.27;95848.53;5061293;28;20691;-86
2024/04/07 05:25:08;;;;;;;2.23;1.40;;;;;;;11.79;78.96;95855.44;5060831;28;20202;-86
2024/04/07 05:27:35;;;;;;;1.60;1.17;;;;;;;11.86;78.18;95852.72;5060708;28;20217;-87
2024/04/07 05:30:01;;;;;;;5.47;1.50;;;;;;;12.08;77.19;95837.25;5061603;28;20244;-86
2024/04/07 05:32:28;;;;;;;3.23;1.63;;;;;;;12.10;75.72;95846.56;5061398;28;20189;-85
2024/04/07 05:34:54;;;;;;;2.73;1.57;;;;;;;12.23;76.78;95848.22;5062412;28;20198;-86
2024/04/07 05:37:20;;;;;;;3.13;2.20;;;;;;;12.03;78.78;95859.03;5063138;28;20220;-86
2024/04/07 05:39:47;;;;;;;4.43;2.07;;;;;;;11.98;79.22;95864.19;5061871;28;20215;-86
2024/04/07 05:42:16;;;;;;;2.57;1.90;;;;;;;12.03;80.01;95872.25;5061805;28;20227;-85
2024/04/07 05:44:41;;;;;;;2.80;2.07;;;;;;;12.00;79.86;95872.69;5062570;28;20186;-86
2024/04/07 05:47:08;;;;;;;4.40;1.80;;;;;;;12.02;79.24;95888.31;5063445;28;20286;-85
2024/04/07 05:49:34;;;;;;;3.33;1.77;;;;;;;11.88;80.46;95902.69;5064806;28;20200;-86
2024/04/07 05:52:01;;;;;;;2.40;1.50;;;;;;;11.66;82.27;95897.78;5066543;28;20192;-85
2024/04/07 05:54:27;;;;;;;2.03;1.83;;;;;;;11.81;82.98;95891.38;5065842;28;20557;-85
2024/04/07 05:56:54;;;;;;;2.13;1.40;;;;;;;11.74;83.31;95891.44;5061404;28;20213;-86
2024/04/07 05:59:22;;;;;;;2.80;1.67;;;;;;;11.83;84.20;95891.97;5060630;28;20217;-86
2024/04/07 06:01:49;;;;;;;1.87;1.40;;;;;;;12.05;81.92;95888.66;5061251;28;20217;-86
2024/04/07 06:04:15;;;;;;;6.10;1.83;;;;;;;12.10;81.31;95895.94;5062575;28;20194;-85
2024/04/07 06:06:42;;;;;;;3.53;1.50;;;;;;;12.16;81.69;95902.97;5061020;28;20221;-85
2024/04/07 06:09:08;;;;;;;2.47;2.00;;;;;;;12.32;80.86;95905.03;5062542;28;20216;-86
2024/04/07 06:11:35;;;;;;;4.80;1.57;;;;;;;12.14;81.36;95908.47;5060906;28;20243;-86
2024/04/07 06:14:00;;;;;;;3.10;1.67;;;;;;;12.21;81.65;95913.66;5060473;28;20239;-86
2024/04/07 06:16:29;;;;;;;2.17;1.43;;;;;;;12.31;81.19;95920.06;5061638;28;20215;-86
2024/04/07 06:18:54;;;;;;;2.20;1.43;;;;;;;12.49;81.10;95917.41;5062528;28;20566;-85
2024/04/07 06:21:22;;;;;;;2.03;1.20;;;;;;;12.59;79.12;95910.78;5061340;28;20266;-86
2024/04/07 06:23:47;;;;;;;6.43;1.40;;;;;;;12.67;79.24;95919.19;5061957;28;20205;-86
2024/04/07 06:26:14;;;;;;;2.10;1.30;;;;;;;12.73;78.41;95915.66;5061268;28;20657;-86
2024/04/07 06:28:40;;;;;;;3.93;1.70;;;;;;;12.97;78.29;95930.59;5060718;28;20196;-86
2024/04/07 06:31:07;;;;;;;3.50;1.40;;;;;;;12.94;79.66;95912.53;5061983;28;20197;-87
2024/04/07 06:33:34;;;;;;;4.63;1.67;;;;;;;12.81;79.99;95918.00;5062920;28;20212;-86
2024/04/07 06:36:01;;;;;;;1.87;1.20;;;;;;;13.07;78.63;95916.84;5062000;28;20555;-86
2024/04/07 06:38:27;;;;;;;3.87;1.13;;;;;;;13.13;76.30;95915.94;5062177;28;20197;-86
2024/04/07 06:40:54;;;;;;;4.83;1.10;;;;;;;13.42;74.83;95917.72;5062441;28;20221;-86
2024/04/07 06:43:20;;;;;;;5.93;1.13;;;;;;;13.70;73.75;95920.50;5071119;28;20259;-84
2024/04/07 06:45:46;;;;;;;10.73;1.97;;;;;;;14.11;71.35;95927.53;5071152;28;20181;-86
2024/04/07 06:48:13;;;;;;;3.87;1.40;;;;;;;14.42;71.00;95936.97;5062940;28;20248;-85
2024/04/07 06:50:41;;;;;;;4.97;1.60;;;;;;;14.67;72.52;95931.34;5062258;28;20181;-86
2024/04/07 06:53:07;;;;;;;3.70;1.53;;;;;;;14.77;73.66;95923.63;5061391;28;20262;-85
2024/04/07 06:55:34;;;;;;;6.30;1.73;;;;;;;14.87;72.05;95918.47;5061180;28;20197;-85
2024/04/07 06:58:00;;;;;;;4.53;1.50;;;;;;;15.21;68.71;95907.72;5062911;28;20213;-85
2024/04/07 07:00:28;;;;;;;4.67;1.50;;;;;;;15.43;66.29;95917.59;5060791;28;20712;-84
2024/04/07 07:02:53;;;;;;;4.37;1.47;;;;;;;15.54;66.31;95916.78;5060798;28;20290;-85
2024/04/07 07:05:22;;;;;;;7.47;1.53;;;;;;;15.85;64.54;95916.19;5061512;28;20197;-85
2024/04/07 07:07:49;;;;;;;6.03;1.13;;;;;;;16.08;63.76;95916.00;5062130;28;20213;-85
2024/04/07 07:10:16;;;;;;;11.30;1.67;;;;;;;16.37;62.50;95916.66;5060984;28;20201;-84
2024/04/07 07:12:42;;;;;;;6.37;1.57;;;;;;;16.44;62.95;95927.91;5061667;28;20243;-85
2024/04/07 07:15:09;;;;;;;5.80;1.97;;;;;;;16.55;67.82;95951.75;5063828;28;20185;-85
2024/04/07 07:17:35;;;;;;;3.03;1.30;;;;;;;16.19;72.46;95954.97;5064472;28;20213;-84
2024/04/07 07:20:02;;;;;;;2.43;1.37;;;;;;;16.24;73.35;95951.56;5061909;28;20209;-84
2024/04/07 07:22:27;;;;;;;6.70;1.73;;;;;;;16.36;73.90;95945.06;5064576;28;20327;-85
2024/04/07 07:24:56;;;;;;;6.67;1.60;;;;;;;16.47;73.64;95938.88;5052252;28;20646;-85
2024/04/07 07:27:21;;;;;;;2.23;1.40;;;;;;;16.56;73.80;95948.06;5050951;28;20271;-85
2024/04/07 07:29:48;;;;;;;3.87;1.33;;;;;;;16.82;73.49;95959.00;5053907;28;20194;-82
2024/04/07 07:32:15;;;;;;;6.67;1.70;;;;;;;16.82;73.18;95956.34;5069199;28;20190;-83
2024/04/07 07:34:42;;;;;;;8.33;1.90;;;;;;;16.95;71.60;95945.28;5062135;28;20196;-84
2024/04/07 07:37:07;;;;;;;7.77;1.70;;;;;;;17.27;67.55;95944.31;5045230;28;20311;-83
2024/04/07 07:39:34;;;;;;;3.83;1.20;;;;;;;17.36;66.42;95952.66;5045609;28;20190;-84
2024/04/07 07:42:02;;;;;;;4.27;1.40;;;;;;;17.39;64.89;95964.66;5049257;28;20259;-84
2024/04/07 07:44:29;;;;;;;3.50;1.50;;;;;;;17.29;70.14;95979.47;5045453;28;20197;-84
2024/04/07 07:46:55;;;;;;;2.83;1.50;;;;;;;17.31;71.80;95979.25;5045579;28;20212;-84
2024/04/07 07:49:22;;;;;;;10.97;1.97;;;;;;;17.32;72.21;95990.69;5048411;28;20193;-84
2024/04/07 07:51:48;;;;;;;4.60;1.30;;;;;;;17.41;72.06;95989.19;5046327;28;20197;-84
2024/04/07 07:54:14;;;;;;;4.87;1.60;;;;;;;17.51;72.02;95982.13;5046854;28;20213;-84
2024/04/07 07:56:40;;;;;;;2.87;1.30;;;;;;;17.44;71.19;95992.13;5047563;28;20209;-85
2024/04/07 07:59:08;;;;;;;8.57;1.40;;;;;;;17.46;69.10;95999.88;5046686;28;20205;-84
2024/04/07 08:01:34;;;;;;;5.13;1.67;;;;;;;17.61;66.12;96005.38;5045356;28;20220;-85
2024/04/07 08:04:01;;;;;;;8.47;1.70;;;;;;;17.71;66.62;96010.81;5044993;28;20654;-84
2024/04/07 08:06:28;;;;;;;4.10;1.30;;;;;;;17.84;64.13;96005.06;5048190;28;20209;-84
2024/04/07 08:08:55;;;;;;;9.37;1.63;;;;;;;17.95;65.28;96004.09;5046383;28;20235;-85
2024/04/07 08:11:20;;;;;;;5.70;1.10;;;;;;;18.11;66.55;96013.03;5044737;28;20243;-84
2024/04/07 08:13:47;;;;;;;3.23;1.27;;;;;;;18.30;61.77;96012.34;5045480;28;20678;-85
2024/04/07 08:16:16;;;;;;;5.00;1.40;;;;;;;18.39;61.74;96021.47;5046348;28;20197;-84
2024/04/07 08:18:42;;;;;;;5.43;2.00;;;;;;;18.38;60.15;96016.41;5049399;28;20190;-84
2024/04/07 08:21:09;;;;;;;5.57;1.10;;;;;;;18.48;59.81;96003.97;5045554;28;20198;-85
2024/04/07 08:23:36;;;;;;;4.43;1.27;;;;;;;18.54;59.41;96018.94;5047658;28;20214;-84
2024/04/07 08:26:03;;;;;;;5.60;1.53;;;;;;;18.55;61.83;96022.44;5046549;28;20654;-85
2024/04/07 08:28:32;;;;;;;5.07;1.10;;;;;;;18.63;62.30;96030.75;5046931;28;20221;-85
2024/04/07 08:30:59;;;;;;;5.13;1.50;;;;;;;18.69;63.62;96041.44;5048503;28;20200;-86
2024/04/07 08:33:27;;;;;;;12.80;2.27;;;;;;;18.71;64.07;96050.00;5047254;28;20194;-85
2024/04/07 08:35:53;;;;;;;11.43;1.63;;;;;;;18.78;63.17;96047.91;5048462;28;20232;-86
2024/04/07 08:38:20;;;;;;;3.60;1.33;;;;;;;18.83;62.96;96048.75;5046446;28;20214;-83
2024/04/07 08:40:47;;;;;;;4.33;1.50;;;;;;;18.99;64.31;96052.28;5047990;28;20186;-85
2024/04/07 08:43:14;;;;;;;4.53;1.33;;;;;;;19.04;65.46;96045.09;5050223;28;20213;-84
2024/04/07 08:45:39;;;;;;;6.97;1.60;;;;;;;19.18;63.94;96040.88;5046963;28;20198;-84
2024/04/07 08:48:07;;;;;;;4.13;1.37;;;;;;;19.27;61.71;96033.19;5048556;28;20263;-85
2024/04/07 08:50:34;;;;;;;5.63;1.20;;;;;;;19.49;60.95;96047.16;5052048;28;20259;-84
2024/04/07 08:53:01;;;;;;;5.40;1.33;;;;;;;19.60;58.45;96040.78;5059363;28;20186;-84
2024/04/07 08:55:26;;;;;;;5.80;1.50;;;;;;;19.65;56.66;96050.69;5059657;28;20206;-84
2024/04/07 08:57:53;;;;;;;5.33;1.23;;;;;;;19.67;56.59;96041.34;5060349;28;20211;-84
2024/04/07 09:00:19;;;;;;;8.67;1.50;;;;;;;19.72;55.87;96049.34;5058958;28;20201;-84
2024/04/07 09:02:46;;;;;;;2.00;1.00;;;;;;;19.54;57.41;96049.84;5060592;28;20264;-83
2024/04/07 09:05:12;;;;;;;2.83;1.30;;;;;;;19.64;57.64;96047.22;5060526;28;20191;-85
2024/04/07 09:07:40;;;;;;;3.27;1.20;;;;;;;19.72;56.76;96046.66;5058604;28;20267;-88
2024/04/07 09:10:07;;;;;;;2.17;1.00;;;;;;;19.47;56.15;96059.16;5059366;28;20251;-86
2024/04/07 09:12:33;;;;;;;4.10;1.60;;;;;;;19.54;56.21;96063.22;5057757;28;20188;-86
2024/04/07 09:15:00;;;;;;;4.10;1.20;;;;;;;19.44;56.70;96057.81;5057578;28;20686;-85
2024/04/07 09:17:28;;;;;;;4.73;1.33;;;;;;;19.58;56.94;96060.81;5057631;28;20637;-86
2024/04/07 09:19:55;;;;;;;4.67;1.40;;;;;;;19.64;56.60;96070.44;5056549;28;20194;-87
2024/04/07 09:22:22;;;;;;;5.90;1.33;;;;;;;19.52;56.00;96051.97;5056165;28;20230;-87
2024/04/07 09:24:50;;;;;;;8.03;1.47;;;;;;;19.59;55.77;96041.84;5058132;28;20209;-86
2024/04/07 09:27:17;;;;;;;4.13;1.50;;;;;;;19.56;56.20;96047.72;5055314;28;20223;-87
2024/04/07 09:29:44;;;;;;;6.67;1.50;;;;;;;19.64;56.47;96049.06;5056397;28;20203;-87
2024/04/07 09:32:10;;;;;;;4.63;1.50;;;;;;;19.68;56.09;96056.28;5056009;28;20231;-87
2024/04/07 09:34:37;;;;;;;5.37;1.77;;;;;;;19.69;56.39;96052.56;5055875;28;20202;-87
2024/04/07 09:37:03;;;;;;;6.70;1.63;;;;;;;19.79;55.00;96049.91;5057252;28;20226;-87
2024/04/07 09:39:30;;;;;;;4.40;1.40;;;;;;;19.74;55.65;96041.88;5057502;28;20195;-87
2024/04/07 09:41:59;;;;;;;8.57;1.40;;;;;;;19.54;54.95;96047.19;5056653;28;20195;-86
2024/04/07 09:44:25;;;;;;;2.80;1.20;;;;;;;19.72;54.61;96048.56;5057603;28;20229;-88
2024/04/07 09:46:51;;;;;;;6.63;1.40;;;;;;;19.90;55.12;96046.19;5058179;28;20222;-87
2024/04/07 09:49:19;;;;;;;3.73;1.50;;;;;;;20.06;54.16;96043.50;5058775;28;20199;-87
2024/04/07 09:51:48;;;;;;;22.63;14.50;;;;;;;20.19;54.51;96038.44;5057773;28;20251;-87
2024/04/07 09:54:16;;;;;;;9.00;4.77;;;;;;;20.44;54.32;96040.34;5058029;28;20195;-88
2024/04/07 09:56:42;;;;;;;3.57;1.50;;;;;;;20.41;54.23;96041.66;5056892;28;20582;-87
2024/04/07 09:59:11;;;;;;;4.73;1.50;;;;;;;20.52;53.84;96047.81;5057477;28;20206;-86
2024/04/07 10:01:36;;;;;;;2.80;1.50;;;;;;;20.53;52.94;96050.22;5058626;28;20193;-87
2024/04/07 10:04:03;;;;;;;3.23;1.30;;;;;;;20.66;52.46;96046.19;5055992;28;20290;-87
2024/04/07 10:06:29;;;;;;;4.30;1.30;;;;;;;20.67;52.99;96037.91;5055923;28;20220;-87
2024/04/07 10:08:56;;;;;;;3.27;1.20;;;;;;;20.77;53.58;96038.94;5056343;28;20196;-87
2024/04/07 10:11:22;;;;;;;4.27;1.40;;;;;;;21.00;51.99;96032.97;5056925;28;20201;-87
2024/04/07 10:13:49;;;;;;;3.33;1.00;;;;;;;20.94;51.05;96032.19;5056885;28;20610;-88
2024/04/07 10:16:16;;;;;;;6.60;1.63;;;;;;;20.92;52.79;96034.34;5057654;28;20251;-87
2024/04/07 10:18:43;;;;;;;6.60;2.17;;;;;;;21.01;52.96;96026.53;5058379;28;20625;-87
2024/04/07 10:21:09;;;;;;;7.30;1.83;;;;;;;21.12;51.19;96022.78;5057873;28;20185;-87
2024/04/07 10:23:36;;;;;;;5.87;1.60;;;;;;;21.26;50.89;96029.94;5057254;28;20271;-86
2024/04/07 10:26:03;;;;;;;5.20;1.33;;;;;;;21.30;52.10;96017.63;5059287;28;20246;-87
2024/04/07 10:28:45;;;;;;;2.77;1.07;;;;;;;21.44;52.37;96019.69;5058287;28;20272;-86
2024/04/07 10:31:11;;;;;;;4.87;1.23;;;;;;;21.34;52.54;96021.34;5058331;28;20208;-86
2024/04/07 10:33:39;;;;;;;8.53;1.70;;;;;;;21.46;52.83;96015.66;5057952;28;20319;-87
2024/04/07 10:36:06;;;;;;;6.83;1.47;;;;;;;21.50;51.63;96010.53;5057935;28;20283;-87
2024/04/07 10:38:43;;;;;;;2.33;1.23;;;;;;;21.47;52.23;96009.19;5058641;28;20196;-86
2024/04/07 10:41:17;;;;;;;4.17;1.40;;;;;;;21.64;53.78;96006.97;5060609;28;20189;-86
2024/04/07 10:43:44;;;;;;;4.10;1.20;;;;;;;21.54;52.48;96011.59;5058391;28;20320;-86
2024/04/07 10:46:10;;;;;;;5.20;1.20;;;;;;;21.48;51.30;96005.47;5059833;28;20538;-86
2024/04/07 10:48:39;;;;;;;4.73;1.57;;;;;;;21.49;51.40;96004.38;5061600;28;20246;-86
2024/04/07 10:51:06;;;;;;;9.17;1.83;;;;;;;21.75;52.03;95991.63;5063659;28;20216;-86
2024/04/07 10:53:33;;;;;;;2.40;1.40;;;;;;;21.71;51.46;95983.31;5057527;28;20198;-86
2024/04/07 10:56:00;;;;;;;7.83;1.90;;;;;;;21.61;51.54;95999.47;5057617;28;20626;-86
2024/04/07 10:58:27;;;;;;;5.80;1.40;;;;;;;21.81;49.44;95996.66;5056581;28;20649;-86
2024/04/07 11:00:53;;;;;;;6.70;1.57;;;;;;;21.76;50.43;95993.22;5056994;28;20193;-87
2024/04/07 11:03:20;;;;;;;3.70;1.37;;;;;;;21.90;51.30;95996.91;5056761;28;20237;-85
2024/04/07 11:05:47;;;;;;;3.83;1.03;;;;;;;21.95;53.03;95995.00;5058109;28;20205;-86
2024/04/07 11:08:14;;;;;;;7.23;1.57;;;;;;;22.01;52.35;95979.63;5060925;28;20223;-86
2024/04/07 11:10:40;;;;;;;7.60;1.43;;;;;;;22.01;50.25;95979.63;5060964;28;20598;-87
2024/04/07 11:13:07;;;;;;;4.27;1.33;;;;;;;22.18;51.06;95979.22;5061250;28;20197;-86
2024/04/07 11:15:33;;;;;;;7.80;1.30;;;;;;;22.36;51.56;95971.28;5060719;28;20197;-86
2024/04/07 11:18:00;;;;;;;7.67;1.77;;;;;;;22.33;52.39;95971.84;5061341;28;20214;-86
2024/04/07 11:20:25;;;;;;;3.27;1.50;;;;;;;22.21;53.60;95965.25;5062262;28;20193;-87
2024/04/07 11:22:54;;;;;;;5.70;1.70;;;;;;;22.27;54.17;95964.13;5062534;28;20212;-85
2024/04/07 11:25:20;;;;;;;6.33;1.73;;;;;;;22.43;50.96;95958.31;5062024;28;20249;-85
2024/04/07 11:27:47;;;;;;;3.90;1.53;;;;;;;22.61;50.78;95954.94;5063537;28;20304;-87
2024/04/07 11:30:13;;;;;;;7.67;1.70;;;;;;;22.75;51.42;95944.31;5063072;28;20615;-87
2024/04/07 11:32:40;;;;;;;5.97;1.60;;;;;;;22.53;51.40;95957.41;5062156;28;20207;-86
2024/04/07 11:35:07;;;;;;;3.27;1.60;;;;;;;22.61;52.78;95944.19;5063029;28;20201;-87
2024/04/07 11:37:34;;;;;;;10.63;1.93;;;;;;;22.58;51.30;95925.94;5062422;28;20256;-86